Cabezon de la Sal, Spain
Current Conditions -  °F | °C
As of 11:00 PM on Monday 22 Dec 2014 (Local Time) from LEXJ Reporting Station
Few Clouds Few Clouds  
Wind Chill: 43°   Ceiling: Unl
Heat Index: 43°   Visibility: 6mi
Dew Point: 41°   Wind: 1mph
Humidity: 93%   Direction: 200°SSW
Pressure: 30.39"   Gusts: NA
Location:  43.31°N, 4.24°W
Report Text: LEXJ 222200Z 20001KT 9999 FEW018 06/05 Q1029
Loading
Personal Weather Stations






























Interactive Weather Map New forecast layout! Learn more

10-Day Weather Forecast

Advertisements
Track Severe Weather on mobile